sensor_id;sensor_type;location;lat;lon;timestamp;pressure;altitude;pressure_sealevel;temperature;humidity
52591;BME280;38483;42.620;25.394;2023-12-20T00:02:23;97326.78;;;4.79;76.47
52591;BME280;38483;42.620;25.394;2023-12-20T00:04:50;97335.19;;;4.87;75.48
52591;BME280;38483;42.620;25.394;2023-12-20T00:07:18;97319.97;;;4.78;75.98
52591;BME280;38483;42.620;25.394;2023-12-20T00:09:46;97312.47;;;4.68;76.24
52591;BME280;38483;42.620;25.394;2023-12-20T00:12:14;97328.53;;;4.77;75.89
52591;BME280;38483;42.620;25.394;2023-12-20T00:14:41;97330.53;;;4.63;75.98
52591;BME280;38483;42.620;25.394;2023-12-20T00:17:08;97304.22;;;4.52;76.73
52591;BME280;38483;42.620;25.394;2023-12-20T00:19:36;97329.16;;;4.90;76.31
52591;BME280;38483;42.620;25.394;2023-12-20T00:22:03;97316.63;;;4.75;76.27
52591;BME280;38483;42.620;25.394;2023-12-20T00:24:30;97312.16;;;4.39;76.79
52591;BME280;38483;42.620;25.394;2023-12-20T00:26:57;97321.50;;;4.41;77.57
52591;BME280;38483;42.620;25.394;2023-12-20T00:29:26;97331.34;;;4.15;78.48
52591;BME280;38483;42.620;25.394;2023-12-20T00:31:55;97326.22;;;4.15;78.87
52591;BME280;38483;42.620;25.394;2023-12-20T00:34:22;97332.03;;;4.25;78.50
52591;BME280;38483;42.620;25.394;2023-12-20T00:36:49;97315.97;;;4.15;77.47
52591;BME280;38483;42.620;25.394;2023-12-20T00:39:16;97319.13;;;4.31;77.50
52591;BME280;38483;42.620;25.394;2023-12-20T00:41:43;97326.00;;;4.27;77.78
52591;BME280;38483;42.620;25.394;2023-12-20T00:44:11;97322.69;;;4.21;78.01
52591;BME280;38483;42.620;25.394;2023-12-20T00:46:38;97320.50;;;3.99;78.65
52591;BME280;38483;42.620;25.394;2023-12-20T00:49:05;97327.91;;;4.16;78.59
52591;BME280;38483;42.620;25.394;2023-12-20T00:51:32;97314.44;;;4.03;78.57
52591;BME280;38483;42.620;25.394;2023-12-20T00:53:59;97316.19;;;4.00;79.20
52591;BME280;38483;42.620;25.394;2023-12-20T00:56:26;97304.34;;;3.94;79.60
52591;BME280;38483;42.620;25.394;2023-12-20T00:58:53;97313.16;;;3.77;80.11
52591;BME280;38483;42.620;25.394;2023-12-20T01:01:21;97241.97;;;3.42;79.96
52591;BME280;38483;42.620;25.394;2023-12-20T01:03:48;97295.16;;;3.80;80.18
52591;BME280;38483;42.620;25.394;2023-12-20T01:06:18;97301.06;;;3.86;80.45
52591;BME280;38483;42.620;25.394;2023-12-20T01:08:45;97298.44;;;3.91;79.98
52591;BME280;38483;42.620;25.394;2023-12-20T01:11:12;97296.44;;;4.08;79.24
52591;BME280;38483;42.620;25.394;2023-12-20T01:13:39;97283.53;;;4.14;79.54
52591;BME280;38483;42.620;25.394;2023-12-20T01:16:10;97213.41;;;3.68;79.24
52591;BME280;38483;42.620;25.394;2023-12-20T01:18:37;97274.81;;;4.23;79.10
52591;BME280;38483;42.620;25.394;2023-12-20T01:21:05;97224.53;;;4.17;77.86
52591;BME280;38483;42.620;25.394;2023-12-20T01:23:32;97258.41;;;4.34;78.27
52591;BME280;38483;42.620;25.394;2023-12-20T01:25:59;97253.09;;;4.43;78.25
52591;BME280;38483;42.620;25.394;2023-12-20T01:28:26;97248.69;;;4.51;77.29
52591;BME280;38483;42.620;25.394;2023-12-20T01:30:54;97250.44;;;4.48;77.46
52591;BME280;38483;42.620;25.394;2023-12-20T01:33:21;97265.16;;;4.38;77.72
52591;BME280;38483;42.620;25.394;2023-12-20T01:35:48;97252.56;;;4.26;78.07
52591;BME280;38483;42.620;25.394;2023-12-20T01:38:15;97253.41;;;4.25;77.71
52591;BME280;38483;42.620;25.394;2023-12-20T01:40:45;97229.97;;;3.99;77.70
52591;BME280;38483;42.620;25.394;2023-12-20T01:43:12;97214.78;;;3.88;77.77
52591;BME280;38483;42.620;25.394;2023-12-20T01:45:40;97229.09;;;4.00;78.38
52591;BME280;38483;42.620;25.394;2023-12-20T01:48:09;97160.72;;;3.55;77.72
52591;BME280;38483;42.620;25.394;2023-12-20T01:50:37;97227.38;;;4.00;76.92
52591;BME280;38483;42.620;25.394;2023-12-20T01:53:07;97223.16;;;3.98;77.47
52591;BME280;38483;42.620;25.394;2023-12-20T01:55:40;97221.00;;;3.74;77.54
52591;BME280;38483;42.620;25.394;2023-12-20T01:58:09;97210.88;;;3.66;77.90
52591;BME280;38483;42.620;25.394;2023-12-20T02:00:37;97211.81;;;3.61;78.11
52591;BME280;38483;42.620;25.394;2023-12-20T02:03:05;97195.56;;;3.63;78.06
52591;BME280;38483;42.620;25.394;2023-12-20T02:05:34;97205.78;;;3.66;77.43
52591;BME280;38483;42.620;25.394;2023-12-20T02:08:02;97192.25;;;3.57;77.34
52591;BME280;38483;42.620;25.394;2023-12-20T02:10:29;97197.03;;;3.24;79.14
52591;BME280;38483;42.620;25.394;2023-12-20T02:12:57;97166.59;;;3.06;79.81
52591;BME280;38483;42.620;25.394;2023-12-20T02:15:24;97164.44;;;2.79;80.72
52591;BME280;38483;42.620;25.394;2023-12-20T02:17:52;97187.47;;;2.76;81.58
52591;BME280;38483;42.620;25.394;2023-12-20T02:20:39;97186.72;;;2.68;82.87
52591;BME280;38483;42.620;25.394;2023-12-20T02:23:06;97184.22;;;2.65;82.01
52591;BME280;38483;42.620;25.394;2023-12-20T02:25:33;97164.72;;;2.57;83.41
52591;BME280;38483;42.620;25.394;2023-12-20T02:28:01;97171.41;;;2.67;83.57
52591;BME280;38483;42.620;25.394;2023-12-20T02:30:29;97162.81;;;2.72;83.18
52591;BME280;38483;42.620;25.394;2023-12-20T02:32:56;97160.38;;;2.63;83.50
52591;BME280;38483;42.620;25.394;2023-12-20T02:35:23;97157.84;;;2.60;84.25
52591;BME280;38483;42.620;25.394;2023-12-20T02:37:50;97164.75;;;2.55;84.26
52591;BME280;38483;42.620;25.394;2023-12-20T02:40:17;97156.34;;;2.47;85.04
52591;BME280;38483;42.620;25.394;2023-12-20T02:42:44;97169.00;;;2.55;84.25
52591;BME280;38483;42.620;25.394;2023-12-20T02:45:12;97162.84;;;2.71;84.13
52591;BME280;38483;42.620;25.394;2023-12-20T02:47:39;97157.47;;;2.89;83.47
52591;BME280;38483;42.620;25.394;2023-12-20T02:50:07;97149.03;;;2.84;83.80
52591;BME280;38483;42.620;25.394;2023-12-20T02:52:34;97147.06;;;3.02;83.07
52591;BME280;38483;42.620;25.394;2023-12-20T02:55:01;97144.31;;;3.14;82.41
52591;BME280;38483;42.620;25.394;2023-12-20T02:57:29;97138.34;;;3.14;82.41
52591;BME280;38483;42.620;25.394;2023-12-20T02:59:57;97159.59;;;3.17;82.56
52591;BME280;38483;42.620;25.394;2023-12-20T03:02:24;97125.50;;;3.15;82.23
52591;BME280;38483;42.620;25.394;2023-12-20T03:04:51;97133.09;;;3.21;82.17
52591;BME280;38483;42.620;25.394;2023-12-20T03:07:18;97137.50;;;3.15;82.74
52591;BME280;38483;42.620;25.394;2023-12-20T03:09:45;97133.34;;;3.06;82.50
52591;BME280;38483;42.620;25.394;2023-12-20T03:12:32;97135.25;;;2.94;83.51
52591;BME280;38483;42.620;25.394;2023-12-20T03:14:59;97122.28;;;3.04;83.12
52591;BME280;38483;42.620;25.394;2023-12-20T03:17:26;97104.47;;;3.00;82.96
52591;BME280;38483;42.620;25.394;2023-12-20T03:19:53;97126.53;;;3.05;83.09
52591;BME280;38483;42.620;25.394;2023-12-20T03:22:20;97118.66;;;3.19;82.29
52591;BME280;38483;42.620;25.394;2023-12-20T03:24:47;97112.00;;;3.09;82.72
52591;BME280;38483;42.620;25.394;2023-12-20T03:27:14;97116.94;;;3.18;83.01
52591;BME280;38483;42.620;25.394;2023-12-20T03:29:41;97126.44;;;3.11;83.42
52591;BME280;38483;42.620;25.394;2023-12-20T03:32:08;97116.03;;;3.23;82.52
52591;BME280;38483;42.620;25.394;2023-12-20T03:34:36;97116.31;;;3.04;83.21
52591;BME280;38483;42.620;25.394;2023-12-20T03:37:03;97119.75;;;3.04;82.89
52591;BME280;38483;42.620;25.394;2023-12-20T03:39:30;97106.56;;;3.28;82.53
52591;BME280;38483;42.620;25.394;2023-12-20T03:41:57;97093.41;;;2.98;83.44
52591;BME280;38483;42.620;25.394;2023-12-20T03:44:24;97110.31;;;3.06;82.87
52591;BME280;38483;42.620;25.394;2023-12-20T03:46:52;97092.59;;;2.96;82.97
52591;BME280;38483;42.620;25.394;2023-12-20T03:49:19;97107.94;;;2.96;83.46
52591;BME280;38483;42.620;25.394;2023-12-20T03:51:46;97094.53;;;2.79;84.09
52591;BME280;38483;42.620;25.394;2023-12-20T03:54:13;97090.25;;;2.81;83.94
52591;BME280;38483;42.620;25.394;2023-12-20T03:56:42;97092.09;;;2.71;84.72
52591;BME280;38483;42.620;25.394;2023-12-20T03:59:09;97092.88;;;2.76;84.79
52591;BME280;38483;42.620;25.394;2023-12-20T04:01:36;97100.53;;;2.76;84.85
52591;BME280;38483;42.620;25.394;2023-12-20T04:04:03;97080.22;;;2.67;85.23
52591;BME280;38483;42.620;25.394;2023-12-20T04:06:30;97083.53;;;2.75;85.80
52591;BME280;38483;42.620;25.394;2023-12-20T04:08:58;97059.72;;;2.72;85.33
52591;BME280;38483;42.620;25.394;2023-12-20T04:11:25;97060.63;;;2.66;85.10
52591;BME280;38483;42.620;25.394;2023-12-20T04:13:52;97071.38;;;2.89;84.76
52591;BME280;38483;42.620;25.394;2023-12-20T04:16:19;97076.34;;;2.98;83.93
52591;BME280;38483;42.620;25.394;2023-12-20T04:18:46;97072.16;;;2.93;84.22
52591;BME280;38483;42.620;25.394;2023-12-20T04:21:13;97068.38;;;3.16;83.36
52591;BME280;38483;42.620;25.394;2023-12-20T04:23:40;97021.97;;;2.87;83.35
52591;BME280;38483;42.620;25.394;2023-12-20T04:26:07;97067.41;;;3.22;82.31
52591;BME280;38483;42.620;25.394;2023-12-20T04:28:34;97078.53;;;3.19;82.53
52591;BME280;38483;42.620;25.394;2023-12-20T04:31:01;97070.38;;;2.98;82.32
52591;BME280;38483;42.620;25.394;2023-12-20T04:33:29;97077.13;;;3.02;82.75
52591;BME280;38483;42.620;25.394;2023-12-20T04:35:56;97066.06;;;3.01;82.97
52591;BME280;38483;42.620;25.394;2023-12-20T04:38:24;97067.38;;;2.70;83.67
52591;BME280;38483;42.620;25.394;2023-12-20T04:40:51;97078.34;;;2.78;83.61
52591;BME280;38483;42.620;25.394;2023-12-20T04:43:18;97085.19;;;2.76;83.94
52591;BME280;38483;42.620;25.394;2023-12-20T04:45:46;97086.59;;;2.98;83.61
52591;BME280;38483;42.620;25.394;2023-12-20T04:48:13;97086.41;;;3.07;82.76
52591;BME280;38483;42.620;25.394;2023-12-20T04:50:41;97078.84;;;3.03;81.73
52591;BME280;38483;42.620;25.394;2023-12-20T04:53:09;97096.47;;;3.18;81.84
52591;BME280;38483;42.620;25.394;2023-12-20T04:55:36;97084.47;;;3.21;80.94
52591;BME280;38483;42.620;25.394;2023-12-20T04:58:03;97084.47;;;3.21;80.41
52591;BME280;38483;42.620;25.394;2023-12-20T05:00:30;97079.75;;;2.97;81.60
52591;BME280;38483;42.620;25.394;2023-12-20T05:02:58;97071.84;;;3.12;81.21
52591;BME280;38483;42.620;25.394;2023-12-20T05:05:25;97086.28;;;3.16;80.57
52591;BME280;38483;42.620;25.394;2023-12-20T05:07:52;97070.38;;;2.98;81.03
52591;BME280;38483;42.620;25.394;2023-12-20T05:10:19;97074.78;;;2.90;81.70
52591;BME280;38483;42.620;25.394;2023-12-20T05:12:46;97071.75;;;2.65;82.55
52591;BME280;38483;42.620;25.394;2023-12-20T05:15:14;97066.63;;;2.65;83.17
52591;BME280;38483;42.620;25.394;2023-12-20T05:17:41;97059.97;;;2.55;84.56
52591;BME280;38483;42.620;25.394;2023-12-20T05:20:08;97049.91;;;2.41;84.45
52591;BME280;38483;42.620;25.394;2023-12-20T05:22:36;97050.75;;;2.45;85.50
52591;BME280;38483;42.620;25.394;2023-12-20T05:25:03;97054.78;;;2.58;84.80
52591;BME280;38483;42.620;25.394;2023-12-20T05:27:31;97059.50;;;2.85;84.47
52591;BME280;38483;42.620;25.394;2023-12-20T05:29:58;97064.13;;;3.15;83.68
52591;BME280;38483;42.620;25.394;2023-12-20T05:32:25;97058.19;;;3.15;82.81
52591;BME280;38483;42.620;25.394;2023-12-20T05:34:52;97046.13;;;3.20;82.09
52591;BME280;38483;42.620;25.394;2023-12-20T05:37:19;97047.56;;;3.38;81.28
52591;BME280;38483;42.620;25.394;2023-12-20T05:39:47;97032.28;;;3.33;80.94
52591;BME280;38483;42.620;25.394;2023-12-20T05:42:14;97044.03;;;3.43;79.83
52591;BME280;38483;42.620;25.394;2023-12-20T05:44:41;97029.56;;;3.41;79.32
52591;BME280;38483;42.620;25.394;2023-12-20T05:47:08;97034.41;;;3.08;79.70
52591;BME280;38483;42.620;25.394;2023-12-20T05:49:35;97032.97;;;2.91;80.39
52591;BME280;38483;42.620;25.394;2023-12-20T05:52:02;96998.22;;;2.79;80.18
52591;BME280;38483;42.620;25.394;2023-12-20T05:54:30;97022.09;;;2.78;80.81
52591;BME280;38483;42.620;25.394;2023-12-20T05:56:57;97021.34;;;2.73;80.93
52591;BME280;38483;42.620;25.394;2023-12-20T05:59:24;97026.13;;;2.94;80.95
52591;BME280;38483;42.620;25.394;2023-12-20T06:01:51;97025.09;;;3.04;80.22
52591;BME280;38483;42.620;25.394;2023-12-20T06:04:18;97005.56;;;2.99;79.33
52591;BME280;38483;42.620;25.394;2023-12-20T06:06:48;97032.34;;;3.28;78.59
52591;BME280;38483;42.620;25.394;2023-12-20T06:09:15;97030.94;;;3.12;77.14
52591;BME280;38483;42.620;25.394;2023-12-20T06:11:42;97021.00;;;2.93;77.47
52591;BME280;38483;42.620;25.394;2023-12-20T06:14:09;97028.69;;;2.94;77.66
52591;BME280;38483;42.620;25.394;2023-12-20T06:16:36;96976.44;;;2.56;78.35
52591;BME280;38483;42.620;25.394;2023-12-20T06:19:04;97027.06;;;2.87;78.22
52591;BME280;38483;42.620;25.394;2023-12-20T06:21:31;97026.97;;;2.93;78.46
52591;BME280;38483;42.620;25.394;2023-12-20T06:24:00;97018.28;;;3.03;78.14
52591;BME280;38483;42.620;25.394;2023-12-20T06:26:27;96995.38;;;2.97;78.18
52591;BME280;38483;42.620;25.394;2023-12-20T06:28:55;97014.28;;;3.36;77.45
52591;BME280;38483;42.620;25.394;2023-12-20T06:31:23;96988.88;;;3.27;77.20
52591;BME280;38483;42.620;25.394;2023-12-20T06:33:50;97014.13;;;3.45;76.92
52591;BME280;38483;42.620;25.394;2023-12-20T06:36:26;97027.66;;;3.52;77.65
52591;BME280;38483;42.620;25.394;2023-12-20T06:38:53;97027.47;;;3.62;76.99
52591;BME280;38483;42.620;25.394;2023-12-20T06:41:21;97011.09;;;3.71;76.38
52591;BME280;38483;42.620;25.394;2023-12-20T06:43:48;97020.28;;;3.81;76.55
52591;BME280;38483;42.620;25.394;2023-12-20T06:46:16;97016.22;;;3.69;76.56
52591;BME280;38483;42.620;25.394;2023-12-20T06:48:44;96990.03;;;3.55;76.79
52591;BME280;38483;42.620;25.394;2023-12-20T06:51:14;96999.03;;;3.32;78.04
52591;BME280;38483;42.620;25.394;2023-12-20T06:53:41;97009.72;;;3.53;77.53
52591;BME280;38483;42.620;25.394;2023-12-20T06:56:10;97005.38;;;3.57;77.99
52591;BME280;38483;42.620;25.394;2023-12-20T06:58:43;96998.34;;;3.68;77.85
52591;BME280;38483;42.620;25.394;2023-12-20T07:01:11;96968.66;;;3.58;78.00
52591;BME280;38483;42.620;25.394;2023-12-20T07:03:40;97002.13;;;3.91;78.32
52591;BME280;38483;42.620;25.394;2023-12-20T07:06:09;96986.63;;;3.97;77.70
52591;BME280;38483;42.620;25.394;2023-12-20T07:08:38;96977.09;;;4.04;76.82
52591;BME280;38483;42.620;25.394;2023-12-20T07:11:06;96943.94;;;3.96;76.48
52591;BME280;38483;42.620;25.394;2023-12-20T07:13:34;96917.69;;;3.87;77.10
52591;BME280;38483;42.620;25.394;2023-12-20T07:16:02;96973.34;;;4.20;77.02
52591;BME280;38483;42.620;25.394;2023-12-20T07:18:30;96995.56;;;4.56;75.63
52591;BME280;38483;42.620;25.394;2023-12-20T07:20:57;96965.94;;;4.43;76.25
52591;BME280;38483;42.620;25.394;2023-12-20T07:23:24;96966.91;;;4.76;76.89
52591;BME280;38483;42.620;25.394;2023-12-20T07:25:53;96942.31;;;4.67;75.90
52591;BME280;38483;42.620;25.394;2023-12-20T07:28:20;96932.22;;;4.61;77.37
52591;BME280;38483;42.620;25.394;2023-12-20T07:30:48;96985.66;;;5.12;76.11
52591;BME280;38483;42.620;25.394;2023-12-20T07:33:15;96978.50;;;5.24;75.92
52591;BME280;38483;42.620;25.394;2023-12-20T07:35:42;96977.28;;;5.37;75.68
52591;BME280;38483;42.620;25.394;2023-12-20T07:38:12;96978.69;;;5.17;76.16
52591;BME280;38483;42.620;25.394;2023-12-20T07:40:42;96958.97;;;5.19;76.41
52591;BME280;38483;42.620;25.394;2023-12-20T07:43:11;96977.78;;;5.18;76.50
52591;BME280;38483;42.620;25.394;2023-12-20T07:45:38;96956.56;;;5.11;77.47
52591;BME280;38483;42.620;25.394;2023-12-20T07:48:06;96946.25;;;5.14;77.21
52591;BME280;38483;42.620;25.394;2023-12-20T07:50:34;96954.09;;;5.40;77.30
52591;BME280;38483;42.620;25.394;2023-12-20T07:53:02;96971.88;;;5.48;77.36
52591;BME280;38483;42.620;25.394;2023-12-20T07:55:30;96947.34;;;5.68;76.76
52591;BME280;38483;42.620;25.394;2023-12-20T07:57:59;96961.34;;;5.88;76.85
52591;BME280;38483;42.620;25.394;2023-12-20T08:00:29;96958.19;;;5.78;76.52
52591;BME280;38483;42.620;25.394;2023-12-20T08:02:57;96980.00;;;5.94;75.45
52591;BME280;38483;42.620;25.394;2023-12-20T08:05:25;96955.91;;;5.98;75.24
52591;BME280;38483;42.620;25.394;2023-12-20T08:07:54;96958.78;;;5.88;76.18
52591;BME280;38483;42.620;25.394;2023-12-20T08:10:22;96975.72;;;5.95;75.46
52591;BME280;38483;42.620;25.394;2023-12-20T08:12:51;96958.78;;;6.17;74.78
52591;BME280;38483;42.620;25.394;2023-12-20T08:15:18;96968.38;;;6.12;76.02
52591;BME280;38483;42.620;25.394;2023-12-20T08:17:45;96967.41;;;6.14;74.84
52591;BME280;38483;42.620;25.394;2023-12-20T08:20:13;96955.69;;;6.33;75.64
52591;BME280;38483;42.620;25.394;2023-12-20T08:22:53;96938.78;;;6.26;75.02
52591;BME280;38483;42.620;25.394;2023-12-20T08:25:21;96960.19;;;6.54;74.81
52591;BME280;38483;42.620;25.394;2023-12-20T08:27:49;96910.22;;;6.62;74.33
52591;BME280;38483;42.620;25.394;2023-12-20T08:30:16;96920.03;;;6.50;75.46
52591;BME280;38483;42.620;25.394;2023-12-20T08:32:48;96935.78;;;6.66;74.24
52591;BME280;38483;42.620;25.394;2023-12-20T08:35:15;96921.72;;;6.78;74.31
52591;BME280;38483;42.620;25.394;2023-12-20T08:37:43;96911.09;;;6.87;73.29
52591;BME280;38483;42.620;25.394;2023-12-20T08:40:10;96923.34;;;7.05;73.92
52591;BME280;38483;42.620;25.394;2023-12-20T08:42:38;96916.81;;;6.95;74.49
52591;BME280;38483;42.620;25.394;2023-12-20T08:45:05;96895.16;;;7.02;73.27
52591;BME280;38483;42.620;25.394;2023-12-20T08:47:34;96891.13;;;7.18;72.82
52591;BME280;38483;42.620;25.394;2023-12-20T08:50:02;96899.66;;;7.20;73.07
52591;BME280;38483;42.620;25.394;2023-12-20T08:52:30;96892.84;;;7.42;72.87
52591;BME280;38483;42.620;25.394;2023-12-20T08:54:59;96901.50;;;7.64;72.11
52591;BME280;38483;42.620;25.394;2023-12-20T08:57:30;96880.59;;;7.72;71.28
52591;BME280;38483;42.620;25.394;2023-12-20T08:59:58;96887.31;;;7.99;70.74
52591;BME280;38483;42.620;25.394;2023-12-20T09:02:31;96890.91;;;8.16;70.70
52591;BME280;38483;42.620;25.394;2023-12-20T09:04:59;96879.69;;;8.17;69.32
52591;BME280;38483;42.620;25.394;2023-12-20T09:07:29;96866.13;;;8.12;70.49
52591;BME280;38483;42.620;25.394;2023-12-20T09:09:58;96869.81;;;8.29;69.72
52591;BME280;38483;42.620;25.394;2023-12-20T09:12:26;96859.13;;;8.59;69.31
52591;BME280;38483;42.620;25.394;2023-12-20T09:14:53;96835.59;;;8.45;68.34
52591;BME280;38483;42.620;25.394;2023-12-20T09:17:22;96810.63;;;8.46;67.59
52591;BME280;38483;42.620;25.394;2023-12-20T09:19:53;96809.75;;;8.47;67.94
52591;BME280;38483;42.620;25.394;2023-12-20T09:22:21;96820.72;;;8.52;67.74
52591;BME280;38483;42.620;25.394;2023-12-20T09:24:48;96824.84;;;8.76;67.59
52591;BME280;38483;42.620;25.394;2023-12-20T09:27:17;96810.19;;;8.76;68.12
52591;BME280;38483;42.620;25.394;2023-12-20T09:29:44;96811.94;;;8.96;68.28
52591;BME280;38483;42.620;25.394;2023-12-20T09:32:12;96794.22;;;9.07;67.55
52591;BME280;38483;42.620;25.394;2023-12-20T09:34:40;96809.34;;;9.16;67.71
52591;BME280;38483;42.620;25.394;2023-12-20T09:37:08;96809.06;;;9.22;66.90
52591;BME280;38483;42.620;25.394;2023-12-20T09:39:35;96802.19;;;9.21;65.90
52591;BME280;38483;42.620;25.394;2023-12-20T09:42:04;96771.63;;;9.12;65.78
52591;BME280;38483;42.620;25.394;2023-12-20T09:44:32;96803.28;;;9.36;65.90
52591;BME280;38483;42.620;25.394;2023-12-20T09:47:03;96790.63;;;9.30;65.63
52591;BME280;38483;42.620;25.394;2023-12-20T09:49:32;96787.38;;;9.45;64.83
52591;BME280;38483;42.620;25.394;2023-12-20T09:52:01;96767.44;;;9.47;64.41
52591;BME280;38483;42.620;25.394;2023-12-20T09:54:29;96758.28;;;9.40;64.88
52591;BME280;38483;42.620;25.394;2023-12-20T09:56:57;96763.97;;;9.48;64.69
52591;BME280;38483;42.620;25.394;2023-12-20T09:59:25;96716.53;;;9.30;64.67
52591;BME280;38483;42.620;25.394;2023-12-20T10:01:55;96729.53;;;9.47;64.48
52591;BME280;38483;42.620;25.394;2023-12-20T10:04:24;96754.88;;;9.58;64.36
52591;BME280;38483;42.620;25.394;2023-12-20T10:06:56;96731.63;;;9.02;65.31
52591;BME280;38483;42.620;25.394;2023-12-20T10:09:24;96742.47;;;9.29;64.97
52591;BME280;38483;42.620;25.394;2023-12-20T10:11:54;96745.13;;;9.27;64.63
52591;BME280;38483;42.620;25.394;2023-12-20T10:14:24;96481.97;;;7.72;64.99
52591;BME280;38483;42.620;25.394;2023-12-20T10:16:51;96716.91;;;9.23;65.46
52591;BME280;38483;42.620;25.394;2023-12-20T10:19:19;96715.69;;;9.30;65.69
52591;BME280;38483;42.620;25.394;2023-12-20T10:21:47;96715.56;;;9.33;66.34
52591;BME280;38483;42.620;25.394;2023-12-20T10:24:38;96720.94;;;9.47;63.95
52591;BME280;38483;42.620;25.394;2023-12-20T10:27:08;96713.81;;;9.33;64.71
52591;BME280;38483;42.620;25.394;2023-12-20T10:29:37;96710.19;;;9.37;64.81
52591;BME280;38483;42.620;25.394;2023-12-20T10:32:26;96707.81;;;9.33;65.08
52591;BME280;38483;42.620;25.394;2023-12-20T10:34:55;96700.38;;;9.44;64.69
52591;BME280;38483;42.620;25.394;2023-12-20T10:37:28;96687.16;;;9.33;64.47
52591;BME280;38483;42.620;25.394;2023-12-20T10:39:57;96687.22;;;9.31;64.50
52591;BME280;38483;42.620;25.394;2023-12-20T10:42:30;96683.13;;;9.44;64.53
52591;BME280;38483;42.620;25.394;2023-12-20T10:44:59;96672.22;;;9.21;65.91
52591;BME280;38483;42.620;25.394;2023-12-20T10:47:28;96673.00;;;9.40;65.84
52591;BME280;38483;42.620;25.394;2023-12-20T10:49:57;96645.91;;;9.48;66.64
52591;BME280;38483;42.620;25.394;2023-12-20T10:52:27;96679.50;;;9.84;65.32
52591;BME280;38483;42.620;25.394;2023-12-20T10:54:56;96678.66;;;9.83;64.89
52591;BME280;38483;42.620;25.394;2023-12-20T10:57:27;96679.56;;;10.00;64.45
52591;BME280;38483;42.620;25.394;2023-12-20T10:59:56;96680.28;;;10.03;63.55
52591;BME280;38483;42.620;25.394;2023-12-20T11:02:25;96681.41;;;9.98;63.84
52591;BME280;38483;42.620;25.394;2023-12-20T11:04:59;96664.97;;;9.81;64.49
52591;BME280;38483;42.620;25.394;2023-12-20T11:07:36;96662.44;;;10.16;64.20
52591;BME280;38483;42.620;25.394;2023-12-20T11:10:20;96664.41;;;10.28;64.13
52591;BME280;38483;42.620;25.394;2023-12-20T11:12:59;96668.94;;;10.40;63.73
52591;BME280;38483;42.620;25.394;2023-12-20T11:15:29;96663.00;;;10.55;63.42
52591;BME280;38483;42.620;25.394;2023-12-20T11:17:58;96657.19;;;10.83;62.83
52591;BME280;38483;42.620;25.394;2023-12-20T11:20:36;96646.41;;;10.90;62.08
52591;BME280;38483;42.620;25.394;2023-12-20T11:23:06;96642.03;;;11.08;61.13
52591;BME280;38483;42.620;25.394;2023-12-20T11:25:54;96627.13;;;11.11;61.25
52591;BME280;38483;42.620;25.394;2023-12-20T11:28:23;96644.25;;;11.29;60.76
52591;BME280;38483;42.620;25.394;2023-12-20T11:30:53;96633.91;;;11.14;61.09
52591;BME280;38483;42.620;25.394;2023-12-20T11:33:38;96641.53;;;11.32;60.85
52591;BME280;38483;42.620;25.394;2023-12-20T11:36:15;96634.16;;;11.40;60.06
52591;BME280;38483;42.620;25.394;2023-12-20T11:38:56;96609.56;;;11.48;60.02
52591;BME280;38483;42.620;25.394;2023-12-20T11:41:25;96621.66;;;11.63;59.67
52591;BME280;38483;42.620;25.394;2023-12-20T11:43:53;96580.97;;;11.33;59.91
52591;BME280;38483;42.620;25.394;2023-12-20T11:46:22;96603.00;;;11.56;60.01
52591;BME280;38483;42.620;25.394;2023-12-20T11:48:51;96592.44;;;11.75;59.71
52591;BME280;38483;42.620;25.394;2023-12-20T11:51:18;96573.53;;;11.73;59.35
52591;BME280;38483;42.620;25.394;2023-12-20T11:53:51;96580.91;;;11.65;59.53
52591;BME280;38483;42.620;25.394;2023-12-20T11:56:20;96574.06;;;11.64;59.67
52591;BME280;38483;42.620;25.394;2023-12-20T11:58:48;96575.03;;;11.77;59.85
52591;BME280;38483;42.620;25.394;2023-12-20T12:01:19;96564.50;;;11.80;59.62
52591;BME280;38483;42.620;25.394;2023-12-20T12:03:47;96566.34;;;11.78;60.18
52591;BME280;38483;42.620;25.394;2023-12-20T12:06:16;96554.97;;;11.65;60.38
52591;BME280;38483;42.620;25.394;2023-12-20T12:08:44;96538.75;;;11.31;60.50
52591;BME280;38483;42.620;25.394;2023-12-20T12:11:12;96495.88;;;11.26;60.78
52591;BME280;38483;42.620;25.394;2023-12-20T12:13:39;96541.97;;;11.51;60.18
52591;BME280;38483;42.620;25.394;2023-12-20T12:16:06;96528.25;;;11.48;60.92
52591;BME280;38483;42.620;25.394;2023-12-20T12:18:34;96536.59;;;11.69;60.83
52591;BME280;38483;42.620;25.394;2023-12-20T12:21:01;96533.91;;;11.71;61.19
52591;BME280;38483;42.620;25.394;2023-12-20T12:23:38;96527.66;;;11.89;62.51
52591;BME280;38483;42.620;25.394;2023-12-20T12:26:06;96505.22;;;11.88;60.86
52591;BME280;38483;42.620;25.394;2023-12-20T12:28:34;96515.66;;;11.72;61.65
52591;BME280;38483;42.620;25.394;2023-12-20T12:31:02;96518.25;;;11.72;62.14
52591;BME280;38483;42.620;25.394;2023-12-20T12:33:29;96515.09;;;11.81;62.00
52591;BME280;38483;42.620;25.394;2023-12-20T12:35:57;96510.03;;;11.80;62.20
52591;BME280;38483;42.620;25.394;2023-12-20T12:38:24;96504.88;;;11.64;62.50
52591;BME280;38483;42.620;25.394;2023-12-20T12:40:51;96484.88;;;11.36;62.46
52591;BME280;38483;42.620;25.394;2023-12-20T12:43:20;96495.78;;;11.57;61.58
52591;BME280;38483;42.620;25.394;2023-12-20T12:45:50;96487.13;;;11.42;61.54
52591;BME280;38483;42.620;25.394;2023-12-20T12:48:18;96471.19;;;11.34;62.11
52591;BME280;38483;42.620;25.394;2023-12-20T12:50:46;96501.69;;;11.59;62.32
52591;BME280;38483;42.620;25.394;2023-12-20T12:53:13;96483.34;;;11.48;61.65
52591;BME280;38483;42.620;25.394;2023-12-20T12:55:41;96423.16;;;11.13;62.17
52591;BME280;38483;42.620;25.394;2023-12-20T12:58:08;96493.69;;;11.48;63.20
52591;BME280;38483;42.620;25.394;2023-12-20T13:00:35;96467.03;;;11.46;61.91
52591;BME280;38483;42.620;25.394;2023-12-20T13:03:04;96490.28;;;11.48;62.59
52591;BME280;38483;42.620;25.394;2023-12-20T13:05:31;96498.47;;;11.56;62.62